Ada, MI (49301)

3:58 AM EDT on June 23, 2017 (GMT -0400)
Forest Hills - Orchards | | Change Station

Elev 748 ft 42.95 °N, 85.49 °W | Updated 3 minutes ago

Rain
Rain
71.2 °F
Feels Like 71.2 °F
N
2.4
Wind Variable Wind from SSW
Gusts 3.7 mph

Today
High -- | Low -- °F
--% Chance of Precip.
Yesterday
High -- | Low -- °F
Precip. -- in
Pressure 29.62 in
Visibility 10.0 miles
Clouds Overcast 1700 ft
Dew Point 69 °F
Humidity 94%
Rainfall 0.00 in
Snow Depth Not available.
6:03 AM 9:24 PM
Waning Crescent, 1% visible
METAR KGRR 230753Z AUTO 21011KT 10SM OVC017 23/21 A2964 RMK AO2 LTG DSNT N AND NW RAB18E52 SLP029 P0001 T02280211 $
Pressure 29.62 in
Visibility 10.0 miles
Clouds Overcast 1700 ft
Dew Point 69 °F
Humidity 94%
Rainfall 0.00 in
Snow Depth Not available.
6:03 AM 9:24 PM
Waning Crescent, 1% visible
METAR KGRR 230753Z AUTO 21011KT 10SM OVC017 23/21 A2964 RMK AO2 LTG DSNT N AND NW RAB18E52 SLP029 P0001 T02280211 $

Get Your Daily Forecast Email!

Thanks for signing up!

Be on the lookout for a verification email in your inbox.

You'll start receiving severe weather alerts in your inbox..

×

10-Day Weather Forecast

Almanac

Astronomy

Jun. 23, 2017 Rise Set
Actual Time
Civil Twilight
Nautical Twilight
Astronomical Twilight
Moon
Length of Visible Light
Length of Day
Tomorrow will be .
, % of the Moon is Illuminated

Today's Extremes

State Highs State Lows

Community

WunderPhotos

Category 6

Welcome to Category 6. This is the collective home for Weather Underground's featured writeups by Dr. Jeff Masters (right), Bob Henson (left), Chris Burt, and other regular contributors.

Nearby

Air Quality

  Air Quality AQ Index Pollutant
Not available.

Snow Depth

Station Depth Elevation

Earthquake Activity

City Distance Mag. Time & Date
Minimum magnitude displayed is 2.5.

Coastal Water Temperatures

Place Temperature

Stations

Nearby Weather Stations

Station Location Temp. Windchill Dew Point Humidity Wind Precip. Elev Updated Type
                   

Watches & Warnings

Flood Watch / Flood Statement
Issued: 3:45 AM EDT Jun. 23, 2017 – National Weather Service

... Flood Watch is cancelled...

The Flood Watch for portions of central Michigan, south central
Michigan, southwest Michigan, and west central Michigan has been
cancelled.

While locally heavy rain may continue the remainder of the night
and into Friday morning, the widespread heavy rain threat appears
to be ending. Moreover, the areas that saw heavy rain overnight
are under flood advisories and warnings that extend into the
midday hours of Friday.

The rain should be on the move south as a cold front surges
towards the Michigan Indiana line. We are expecting dry weather
this afternoon in the wake of the frontal passage.


Duke